createdAt,value
2018-07-07T00:00:39.205Z,99.90
2018-07-07T00:03:08.726Z,99.90
2018-07-07T00:05:38.206Z,99.90
2018-07-07T00:08:07.745Z,99.90
2018-07-07T00:10:37.144Z,99.90
2018-07-07T00:13:06.745Z,99.90
2018-07-07T00:18:05.639Z,99.90
2018-07-07T00:20:35.125Z,99.90
2018-07-07T00:23:04.664Z,99.90
2018-07-07T00:25:34.645Z,99.30
2018-07-07T00:28:04.444Z,99.40
2018-07-07T00:30:33.784Z,99.40
2018-07-07T00:33:03.365Z,99.60
2018-07-07T00:35:32.904Z,99.60
2018-07-07T00:38:02.279Z,99.90
2018-07-07T00:40:31.620Z,99.40
2018-07-07T00:43:01.118Z,99.50
2018-07-07T00:45:30.598Z,99.40
2018-07-07T00:48:00.098Z,99.00
2018-07-07T00:50:29.480Z,98.60
2018-07-07T00:52:58.998Z,98.50
2018-07-07T00:55:28.358Z,98.60
2018-07-07T00:57:57.778Z,98.40
2018-07-07T01:00:50.464Z,98.60
2018-07-07T01:03:20.343Z,98.20
2018-07-07T01:05:50.183Z,98.00
2018-07-07T01:08:19.871Z,97.70
2018-07-07T01:10:49.226Z,97.50
2018-07-07T01:13:18.622Z,97.50
2018-07-07T01:15:48.903Z,97.00
2018-07-07T01:18:22.662Z,97.00
2018-07-07T01:20:52.043Z,96.70
2018-07-07T01:23:21.402Z,96.50
2018-07-07T01:25:50.861Z,96.30
2018-07-07T01:28:20.222Z,96.20
2018-07-07T01:30:49.622Z,96.10
2018-07-07T01:33:19.092Z,95.90
2018-07-07T01:35:48.525Z,95.70
2018-07-07T01:38:17.962Z,96.00
2018-07-07T01:40:47.362Z,95.40
2018-07-07T01:43:16.687Z,95.60
2018-07-07T01:45:46.070Z,95.50
2018-07-07T01:48:15.382Z,95.40
2018-07-07T01:50:44.740Z,95.50
2018-07-07T01:53:14.180Z,95.30
2018-07-07T01:55:43.511Z,95.50
2018-07-07T01:58:12.864Z,95.40
2018-07-07T02:00:46.488Z,95.20
2018-07-07T02:03:15.791Z,95.00
2018-07-07T02:05:45.143Z,95.00
2018-07-07T02:08:14.406Z,94.70
2018-07-07T02:10:43.715Z,94.60
2018-07-07T02:13:13.060Z,94.60
2018-07-07T02:15:43.080Z,94.30
2018-07-07T02:18:12.381Z,94.00
2018-07-07T02:20:42.061Z,94.00
2018-07-07T02:25:40.581Z,93.70
2018-07-07T02:28:09.980Z,93.50
2018-07-07T02:33:08.321Z,92.80
2018-07-07T02:35:37.681Z,93.20
2018-07-07T02:38:07.103Z,93.20
2018-07-07T02:40:36.461Z,93.60
2018-07-07T02:43:05.821Z,93.60
2018-07-07T02:45:35.221Z,93.90
2018-07-07T02:48:04.844Z,93.70
2018-07-07T02:50:34.345Z,93.80
2018-07-07T02:53:04.181Z,93.90
2018-07-07T02:55:33.681Z,94.20
2018-07-07T02:58:03.940Z,94.10
2018-07-07T03:00:33.364Z,94.40
2018-07-07T03:03:02.825Z,94.90
2018-07-07T03:05:32.365Z,94.80
2018-07-07T03:08:01.765Z,94.60
2018-07-07T03:10:31.224Z,94.40
2018-07-07T03:13:00.705Z,94.20
2018-07-07T03:15:30.945Z,94.10
2018-07-07T03:18:00.361Z,93.80
2018-07-07T03:20:29.721Z,93.70
2018-07-07T03:22:59.221Z,93.70
2018-07-07T03:25:28.981Z,93.60
2018-07-07T03:27:58.444Z,93.90
2018-07-07T03:30:29.182Z,94.10
2018-07-07T03:33:00.061Z,93.70
2018-07-07T03:35:29.500Z,93.70
2018-07-07T03:37:58.971Z,93.80
2018-07-07T03:40:28.407Z,93.60
2018-07-07T03:42:57.800Z,93.80
2018-07-07T03:45:27.280Z,94.00
2018-07-07T03:50:26.580Z,94.20
2018-07-07T03:52:56.244Z,94.40
2018-07-07T03:55:25.660Z,94.20
2018-07-07T03:57:55.120Z,94.10
2018-07-07T04:00:24.353Z,94.20
2018-07-07T04:02:53.821Z,94.60
2018-07-07T04:05:23.540Z,94.60
2018-07-07T04:07:53.200Z,94.70
2018-07-07T04:10:22.702Z,95.10
2018-07-07T04:12:52.199Z,95.10
2018-07-07T04:15:21.579Z,94.90
2018-07-07T04:17:51.059Z,94.60
2018-07-07T04:20:21.159Z,94.90
2018-07-07T04:22:50.999Z,95.00
2018-07-07T04:25:21.021Z,95.20
2018-07-07T04:27:50.499Z,94.80
2018-07-07T04:30:20.079Z,94.60
2018-07-07T04:32:50.539Z,94.60
2018-07-07T04:37:54.123Z,93.50
2018-07-07T04:40:23.519Z,92.00
2018-07-07T04:42:53.139Z,90.10
2018-07-07T04:45:22.599Z,87.70
2018-07-07T04:47:52.459Z,86.70
2018-07-07T04:50:22.299Z,87.30
2018-07-07T04:52:51.699Z,86.70
2018-07-07T04:55:21.219Z,85.20
2018-07-07T04:57:51.479Z,83.70
2018-07-07T05:00:25.334Z,81.50
2018-07-07T05:02:54.860Z,79.40
2018-07-07T05:05:24.482Z,78.40
2018-07-07T05:07:54.464Z,76.80
2018-07-07T05:10:24.321Z,74.60
2018-07-07T05:12:54.522Z,74.20
2018-07-07T05:15:24.146Z,74.20
2018-07-07T05:17:53.580Z,73.60
2018-07-07T05:20:23.122Z,75.50
2018-07-07T05:22:54.404Z,75.00
2018-07-07T05:27:52.578Z,77.50
2018-07-07T05:30:22.420Z,78.30
2018-07-07T05:32:52.202Z,81.20
2018-07-07T05:35:21.759Z,80.50
2018-07-07T05:37:51.165Z,81.30
2018-07-07T05:40:20.720Z,81.90
2018-07-07T05:45:19.159Z,83.30
2018-07-07T05:47:48.598Z,82.10
2018-07-07T05:50:18.356Z,82.80
2018-07-07T05:52:51.919Z,81.40
2018-07-07T05:55:21.399Z,80.80
2018-07-07T06:00:31.295Z,81.30
2018-07-07T06:03:01.141Z,76.50
2018-07-07T06:05:31.560Z,74.40
2018-07-07T06:08:01.340Z,75.00
2018-07-07T06:10:31.622Z,76.20
2018-07-07T06:13:01.041Z,75.40
2018-07-07T06:15:30.421Z,75.40
2018-07-07T06:20:28.786Z,77.10
2018-07-07T06:22:58.307Z,79.30
2018-07-07T06:25:28.645Z,80.60
2018-07-07T06:27:58.900Z,79.00
2018-07-07T06:30:28.561Z,79.50
2018-07-07T06:32:58.087Z,77.70
2018-07-07T06:35:27.660Z,77.80
2018-07-07T06:37:57.028Z,80.90
2018-07-07T06:40:26.561Z,79.40
2018-07-07T06:42:56.960Z,81.50
2018-07-07T06:45:26.445Z,75.60
2018-07-07T06:47:56.240Z,74.40
2018-07-07T06:50:26.149Z,74.30
2018-07-07T06:52:56.064Z,76.50
2018-07-07T06:57:54.963Z,77.90
2018-07-07T07:00:25.920Z,79.10
2018-07-07T07:05:25.160Z,75.10
2018-07-07T07:07:55.703Z,78.20
2018-07-07T07:10:29.466Z,77.30
2018-07-07T07:12:59.734Z,73.80
2018-07-07T07:15:29.150Z,71.50
2018-07-07T07:17:58.887Z,74.10
2018-07-07T07:20:28.209Z,74.90
2018-07-07T07:25:27.166Z,77.30
2018-07-07T07:28:00.857Z,76.20
2018-07-07T07:30:30.326Z,76.20
2018-07-07T07:32:59.915Z,75.20
2018-07-07T07:35:29.327Z,77.70
2018-07-07T07:37:58.806Z,82.10
2018-07-07T07:40:32.405Z,78.60
2018-07-07T07:43:02.206Z,74.40
2018-07-07T07:45:32.328Z,73.60
2018-07-07T07:50:35.625Z,72.50
2018-07-07T07:53:11.652Z,70.70
2018-07-07T07:55:41.426Z,70.00
2018-07-07T07:58:11.165Z,68.50
2018-07-07T08:00:45.312Z,68.10
2018-07-07T08:03:14.983Z,66.60
2018-07-07T08:05:44.703Z,66.80
2018-07-07T08:08:14.542Z,67.10
2018-07-07T08:10:44.482Z,65.90
2018-07-07T08:13:14.641Z,62.60
2018-07-07T08:15:44.260Z,63.20
2018-07-07T08:18:14.161Z,65.00
2018-07-07T08:20:43.841Z,67.30
2018-07-07T08:23:13.440Z,64.50
2018-07-07T08:25:42.861Z,67.30
2018-07-07T08:28:12.679Z,63.90
2018-07-07T08:30:42.145Z,64.70
2018-07-07T08:33:12.083Z,61.70
2018-07-07T08:35:41.660Z,59.50
2018-07-07T08:38:17.000Z,59.00
2018-07-07T08:40:47.232Z,59.20
2018-07-07T08:43:18.663Z,56.30
2018-07-07T08:45:49.343Z,55.90
2018-07-07T08:48:19.043Z,56.40
2018-07-07T08:50:48.623Z,55.30
2018-07-07T08:53:18.343Z,58.10
2018-07-07T08:55:50.052Z,54.50
2018-07-07T08:58:20.763Z,55.10
2018-07-07T09:00:50.140Z,55.90
2018-07-07T09:03:19.840Z,56.10
2018-07-07T09:05:49.280Z,54.30
2018-07-07T09:08:18.920Z,53.20
2018-07-07T09:10:48.880Z,54.90
2018-07-07T09:13:18.520Z,55.90
2018-07-07T09:15:48.158Z,55.50
2018-07-07T09:18:21.863Z,56.40
2018-07-07T09:20:51.839Z,54.40
2018-07-07T09:23:21.961Z,53.40
2018-07-07T09:25:52.279Z,54.90
2018-07-07T09:28:26.639Z,55.20
2018-07-07T09:30:56.710Z,53.10
2018-07-07T09:33:26.760Z,52.40
2018-07-07T09:35:57.059Z,52.00
2018-07-07T09:38:28.700Z,50.50
2018-07-07T09:40:58.481Z,51.60
2018-07-07T09:43:28.540Z,54.00
2018-07-07T09:45:58.199Z,50.90
2018-07-07T09:48:27.840Z,51.30
2018-07-07T09:50:57.559Z,53.00
2018-07-07T09:53:27.281Z,51.90
2018-07-07T09:55:57.279Z,49.80
2018-07-07T09:58:26.823Z,49.30
2018-07-07T10:00:56.365Z,50.90
2018-07-07T10:03:26.222Z,49.70
2018-07-07T10:05:55.762Z,50.60
2018-07-07T10:08:26.041Z,50.00
2018-07-07T10:10:55.622Z,52.50
2018-07-07T10:13:25.489Z,52.10
2018-07-07T10:15:55.340Z,52.30
2018-07-07T10:18:25.001Z,51.70
2018-07-07T10:20:55.089Z,52.90
2018-07-07T10:23:24.720Z,51.20
2018-07-07T10:26:06.435Z,53.20
2018-07-07T10:28:36.457Z,51.30
2018-07-07T10:31:06.818Z,50.10
2018-07-07T10:33:36.380Z,48.30
2018-07-07T10:36:06.840Z,49.00
2018-07-07T10:38:36.579Z,49.60
2018-07-07T10:41:06.238Z,51.00
2018-07-07T10:43:36.398Z,49.80
2018-07-07T10:46:06.355Z,49.10
2018-07-07T10:51:05.659Z,48.40
2018-07-07T10:53:40.119Z,47.40
2018-07-07T10:56:10.279Z,49.60
2018-07-07T10:58:39.759Z,46.40
2018-07-07T11:01:09.642Z,46.80
2018-07-07T11:03:40.148Z,46.40
2018-07-07T11:06:11.382Z,48.90
2018-07-07T11:08:41.906Z,46.70
2018-07-07T11:11:11.901Z,45.00
2018-07-07T11:13:42.440Z,47.50
2018-07-07T11:18:42.285Z,47.30
2018-07-07T11:21:12.301Z,47.70
2018-07-07T11:23:42.220Z,46.60
2018-07-07T11:26:12.420Z,47.80
2018-07-07T11:28:42.400Z,50.00
2018-07-07T11:31:12.081Z,48.10
2018-07-07T11:33:41.923Z,47.50
2018-07-07T11:36:12.219Z,48.10
2018-07-07T11:43:40.920Z,43.90
2018-07-07T11:46:11.720Z,46.50
2018-07-07T11:48:41.179Z,45.90
2018-07-07T11:51:11.299Z,47.90
2018-07-07T11:53:41.082Z,45.70
2018-07-07T11:56:10.699Z,45.10
2018-07-07T11:58:40.761Z,45.00
2018-07-07T12:01:10.359Z,46.00
2018-07-07T12:03:39.841Z,46.70
2018-07-07T12:06:09.639Z,44.50
2018-07-07T12:08:40.061Z,45.30
2018-07-07T12:11:09.870Z,45.60
2018-07-07T12:13:40.540Z,43.90
2018-07-07T12:16:10.020Z,44.60
2018-07-07T12:18:39.522Z,45.50
2018-07-07T12:23:38.459Z,49.10
2018-07-07T12:26:08.014Z,46.90
2018-07-07T12:28:37.580Z,47.00
2018-07-07T12:31:07.261Z,46.70
2018-07-07T12:33:37.579Z,46.60
2018-07-07T12:36:07.243Z,44.90
2018-07-07T12:38:36.720Z,45.90
2018-07-07T12:41:06.572Z,47.20
2018-07-07T12:43:36.126Z,48.50
2018-07-07T12:46:05.840Z,46.30
2018-07-07T12:48:35.359Z,48.40
2018-07-07T12:51:05.380Z,47.00
2018-07-07T12:53:34.923Z,48.40
2018-07-07T12:56:09.044Z,48.90
2018-07-07T12:58:38.703Z,46.40
2018-07-07T13:01:08.270Z,48.90
2018-07-07T13:06:07.900Z,50.50
2018-07-07T13:08:39.113Z,47.90
2018-07-07T13:11:08.801Z,47.00
2018-07-07T13:13:39.060Z,47.90
2018-07-07T13:16:08.693Z,48.30
2018-07-07T13:18:38.760Z,50.90
2018-07-07T13:21:08.423Z,49.70
2018-07-07T13:23:38.440Z,49.10
2018-07-07T13:26:08.480Z,49.30
2018-07-07T13:28:38.379Z,47.40
2018-07-07T13:31:08.717Z,46.90
2018-07-07T13:33:38.140Z,47.80
2018-07-07T13:38:38.578Z,45.60
2018-07-07T13:41:10.700Z,45.50
2018-07-07T13:43:40.839Z,45.40
2018-07-07T13:46:10.481Z,47.00
2018-07-07T13:48:40.042Z,46.00
2018-07-07T13:51:09.639Z,47.30
2018-07-07T13:53:39.184Z,46.00
2018-07-07T13:56:09.062Z,46.60
2018-07-07T13:58:38.643Z,46.10
2018-07-07T14:01:07.839Z,45.50
2018-07-07T14:03:37.863Z,45.70
2018-07-07T14:06:07.444Z,47.00
2018-07-07T14:08:36.963Z,47.30
2018-07-07T14:11:07.524Z,46.70
2018-07-07T14:16:05.796Z,46.00
2018-07-07T14:18:35.441Z,46.70
2018-07-07T14:21:09.922Z,46.80
2018-07-07T14:23:39.942Z,47.00
2018-07-07T14:26:09.661Z,45.50
2018-07-07T14:28:43.249Z,47.10
2018-07-07T14:31:12.603Z,48.20
2018-07-07T14:33:46.162Z,47.30
2018-07-07T14:36:15.741Z,46.20
2018-07-07T14:38:45.341Z,48.30
2018-07-07T14:41:17.257Z,48.30
2018-07-07T14:43:54.869Z,48.80
2018-07-07T14:46:24.721Z,48.70
2018-07-07T14:48:54.276Z,50.00
2018-07-07T14:51:23.686Z,47.60
2018-07-07T14:53:53.201Z,48.60
2018-07-07T14:56:24.186Z,47.50
2018-07-07T14:58:53.575Z,48.50
2018-07-07T15:01:23.467Z,49.50
2018-07-07T15:03:53.246Z,47.90
2018-07-07T15:06:23.005Z,49.20
2018-07-07T15:08:56.687Z,51.50
2018-07-07T15:11:26.201Z,49.10
2018-07-07T15:13:56.621Z,46.10
2018-07-07T15:16:26.521Z,47.70
2018-07-07T15:18:57.021Z,47.70
2018-07-07T15:21:26.466Z,47.20
2018-07-07T15:23:56.439Z,48.10
2018-07-07T15:26:26.360Z,48.50
2018-07-07T15:28:56.501Z,48.20
2018-07-07T15:31:26.221Z,48.40
2018-07-07T15:33:55.880Z,48.20
2018-07-07T15:36:25.540Z,46.70
2018-07-07T15:41:29.299Z,47.10
2018-07-07T15:43:59.080Z,47.80
2018-07-07T15:46:28.721Z,48.50
2018-07-07T15:48:58.720Z,48.30
2018-07-07T15:53:57.884Z,48.30
2018-07-07T15:56:27.744Z,48.90
2018-07-07T15:58:57.624Z,46.40
2018-07-07T16:01:27.920Z,46.40
2018-07-07T16:03:59.280Z,46.50
2018-07-07T16:06:28.739Z,46.20
2018-07-07T16:08:58.259Z,47.30
2018-07-07T16:11:27.784Z,47.20
2018-07-07T16:13:57.520Z,47.50
2018-07-07T16:16:26.980Z,47.70
2018-07-07T16:18:56.501Z,47.10
2018-07-07T16:21:30.239Z,46.80
2018-07-07T16:23:59.866Z,47.90
2018-07-07T16:26:29.486Z,48.30
2018-07-07T16:28:59.065Z,48.30
2018-07-07T16:31:28.551Z,48.80
2018-07-07T16:33:58.230Z,49.00
2018-07-07T16:36:31.710Z,48.20
2018-07-07T16:39:01.145Z,49.00
2018-07-07T16:41:34.893Z,49.90
2018-07-07T16:44:04.970Z,49.00
2018-07-07T16:46:35.218Z,49.40
2018-07-07T16:49:07.361Z,48.90
2018-07-07T16:51:37.324Z,48.80
2018-07-07T16:54:07.185Z,48.20
2018-07-07T16:56:36.828Z,49.30
2018-07-07T16:59:06.505Z,49.00
2018-07-07T17:04:07.285Z,49.20
2018-07-07T17:06:38.324Z,50.00
2018-07-07T17:09:08.866Z,48.90
2018-07-07T17:11:38.941Z,48.40
2018-07-07T17:14:08.766Z,49.70
2018-07-07T17:16:40.585Z,49.70
2018-07-07T17:19:12.045Z,49.10
2018-07-07T17:21:42.245Z,49.40
2018-07-07T17:24:12.645Z,49.20
2018-07-07T17:26:42.208Z,49.10
2018-07-07T17:29:12.325Z,48.30
2018-07-07T17:31:42.050Z,48.90
2018-07-07T17:34:12.525Z,48.70
2018-07-07T17:36:42.267Z,48.10
2018-07-07T17:39:12.166Z,48.30
2018-07-07T17:41:41.745Z,48.50
2018-07-07T17:44:11.445Z,49.10
2018-07-07T17:46:41.825Z,47.80
2018-07-07T17:49:11.696Z,47.30
2018-07-07T17:51:41.271Z,47.90
2018-07-07T17:54:12.181Z,47.80
2018-07-07T17:56:41.827Z,47.60
2018-07-07T17:59:11.981Z,47.50
2018-07-07T18:01:42.141Z,47.60
2018-07-07T18:04:11.698Z,48.30
2018-07-07T18:06:42.345Z,47.00
2018-07-07T18:09:12.428Z,45.50
2018-07-07T18:11:42.118Z,45.40
2018-07-07T18:14:12.206Z,46.00
2018-07-07T18:16:41.994Z,46.40
2018-07-07T18:19:12.033Z,45.80
2018-07-07T18:21:41.687Z,44.30
2018-07-07T18:24:11.626Z,45.20
2018-07-07T18:26:41.265Z,43.90
2018-07-07T18:29:11.424Z,44.60
2018-07-07T18:34:10.884Z,45.10
2018-07-07T18:36:40.424Z,45.60
2018-07-07T18:39:14.084Z,45.50
2018-07-07T18:41:44.504Z,45.20
2018-07-07T18:44:14.778Z,44.30
2018-07-07T18:46:44.683Z,44.80
2018-07-07T18:49:14.588Z,44.90
2018-07-07T18:51:44.303Z,45.00
2018-07-07T18:54:14.022Z,44.70
2018-07-07T18:56:43.913Z,44.60
2018-07-07T18:59:13.741Z,44.80
2018-07-07T19:01:43.474Z,44.70
2018-07-07T19:04:13.160Z,44.50
2018-07-07T19:06:42.921Z,44.80
2018-07-07T19:09:12.540Z,45.00
2018-07-07T19:11:42.700Z,44.40
2018-07-07T19:14:13.084Z,44.50
2018-07-07T19:16:42.724Z,45.20
2018-07-07T19:19:12.569Z,45.30
2018-07-07T19:21:47.188Z,45.30
2018-07-07T19:24:22.131Z,44.20
2018-07-07T19:29:25.246Z,45.00
2018-07-07T19:31:59.741Z,45.20
2018-07-07T19:34:34.347Z,45.20
2018-07-07T19:37:10.184Z,45.90
2018-07-07T19:39:40.246Z,45.70
2018-07-07T19:42:10.146Z,45.60
2018-07-07T19:44:40.710Z,46.20
2018-07-07T19:47:11.100Z,45.80
2018-07-07T19:49:41.698Z,46.70
2018-07-07T19:52:12.059Z,46.90
2018-07-07T19:54:42.498Z,46.90
2018-07-07T19:57:12.240Z,46.90
2018-07-07T19:59:41.808Z,46.80
2018-07-07T20:02:11.242Z,47.30
2018-07-07T20:04:40.849Z,47.00
2018-07-07T20:07:11.925Z,47.40
2018-07-07T20:09:41.391Z,47.60
2018-07-07T20:12:10.868Z,47.60
2018-07-07T20:17:10.947Z,47.90
2018-07-07T20:20:58.328Z,48.20
2018-07-07T20:23:29.380Z,48.70
2018-07-07T20:26:05.509Z,48.40
2018-07-07T20:28:40.267Z,48.30
2018-07-07T20:31:10.224Z,49.10
2018-07-07T20:33:40.142Z,49.00
2018-07-07T20:36:09.964Z,49.20
2018-07-07T20:38:39.684Z,49.10
2018-07-07T20:41:10.042Z,49.40
2018-07-07T20:46:09.702Z,49.50
2018-07-07T20:48:40.000Z,50.00
2018-07-07T20:51:09.799Z,49.80
2018-07-07T20:53:39.527Z,49.90
2018-07-07T20:56:09.640Z,50.40
2018-07-07T20:58:40.034Z,50.00
2018-07-07T21:01:09.702Z,50.10
2018-07-07T21:03:39.726Z,51.20
2018-07-07T21:06:09.301Z,50.40
2018-07-07T21:08:39.520Z,50.50
2018-07-07T21:11:09.495Z,50.40
2018-07-07T21:13:39.560Z,50.20
2018-07-07T21:16:09.240Z,50.40
2018-07-07T21:18:39.041Z,50.90
2018-07-07T21:21:09.420Z,50.50
2018-07-07T21:23:39.606Z,50.70
2018-07-07T21:26:13.740Z,50.70
2018-07-07T21:28:43.983Z,50.90
2018-07-07T21:31:14.301Z,51.50
2018-07-07T21:33:44.340Z,51.70
2018-07-07T21:36:14.123Z,51.50
2018-07-07T21:38:44.200Z,51.10
2018-07-07T21:41:14.001Z,51.60
2018-07-07T21:43:43.660Z,51.60
2018-07-07T21:46:13.981Z,51.40
2018-07-07T21:48:43.879Z,51.70
2018-07-07T21:51:17.620Z,51.80
2018-07-07T21:53:47.419Z,52.10
2018-07-07T21:56:16.979Z,52.40
2018-07-07T21:58:47.379Z,53.10
2018-07-07T22:01:26.467Z,52.70
2018-07-07T22:04:01.156Z,52.70
2018-07-07T22:09:05.887Z,52.80
2018-07-07T22:11:35.787Z,53.50
2018-07-07T22:14:05.547Z,53.00
2018-07-07T22:16:35.487Z,53.00
2018-07-07T22:19:05.408Z,53.90
2018-07-07T22:21:46.848Z,53.80
2018-07-07T22:24:16.527Z,53.80
2018-07-07T22:26:47.314Z,54.10
2018-07-07T22:29:17.588Z,55.60
2018-07-07T22:31:47.187Z,56.50
2018-07-07T22:34:16.806Z,56.00
2018-07-07T22:36:46.804Z,55.10
2018-07-07T22:39:16.844Z,54.80
2018-07-07T22:41:59.504Z,54.60
2018-07-07T22:44:29.346Z,54.40
2018-07-07T22:46:59.045Z,54.20
2018-07-07T22:49:29.685Z,54.10
2018-07-07T22:52:00.364Z,54.40
2018-07-07T22:54:30.563Z,54.60
2018-07-07T22:57:00.205Z,54.90
2018-07-07T22:59:29.766Z,54.40
2018-07-07T23:01:59.624Z,55.10
2018-07-07T23:04:29.764Z,56.10
2018-07-07T23:06:59.586Z,56.30
2018-07-07T23:09:29.265Z,55.90
2018-07-07T23:11:59.323Z,55.40
2018-07-07T23:14:29.504Z,55.70
2018-07-07T23:17:01.066Z,56.00
2018-07-07T23:19:31.083Z,56.80
2018-07-07T23:22:01.181Z,56.70
2018-07-07T23:24:30.721Z,56.40
2018-07-07T23:27:00.441Z,55.80
2018-07-07T23:29:29.960Z,55.70
2018-07-07T23:31:59.643Z,56.80
2018-07-07T23:34:29.440Z,56.90
2018-07-07T23:36:59.701Z,57.30
2018-07-07T23:39:29.461Z,57.90
2018-07-07T23:42:00.044Z,58.10
2018-07-07T23:44:30.121Z,58.10
2018-07-07T23:46:59.901Z,57.70
2018-07-07T23:49:29.681Z,57.30
2018-07-07T23:51:59.319Z,58.00
2018-07-07T23:54:29.459Z,59.30
2018-07-07T23:56:59.259Z,58.90
2018-07-07T23:59:28.858Z,59.20
